1217 UTC 24 April 2014 found at http://aviationweather.gov/adds/metars/
 
METAR text: KAFF 241158Z AUTO 35004KT 10SM CLR M02/M02 A3002 RMK AO2 SLP142 60001 70004 T10161019 10023 21025 52010
Conditions at: KAFF (USAF ACADEMY/COS, CO, US) observed 1158 UTC 24 April 2014
Temperature: -1.6°C (29°F)
Dewpoint: -1.9°C (29°F) [RH = 98%]
Pressure (altimeter): 30.02 inches Hg (1016.7 mb[Sea-level pressure: 1014.2 mb]
Winds: from the N (350 degrees) at 5 MPH (4 knots; 2.1 m/s)
Visibility: 10 or more miles (16+ km)
Ceiling: at least 12,000 feet AGL
Clouds: sky clear below 12,000 feet AGL
Weather: automated observation with no human augmentation;
there may or may not be significant weather present at this time

METAR text: KAFF 241058Z AUTO 00000KT 10SM CLR M01/M01 A3000 RMK AO2 SLP123 T10141015
Conditions at: KAFF (USAF ACADEMY/COS, CO, US) observed 1058 UTC 24 April 2014
Temperature: -1.4°C (29°F)
Dewpoint: -1.5°C (29°F) [RH = 99%]
Pressure (altimeter): 30.00 inches Hg (1016.0 mb[Sea-level pressure: 1012.3 mb]
Winds: calm
Visibility: 10 or more miles (16+ km)
Ceiling: at least 12,000 feet AGL
Clouds: sky clear below 12,000 feet AGL
Weather: automated observation with no human augmentation;
there may or may not be significant weather present at this time

METAR text: KAFF 240958Z AUTO 05002KT 10SM CLR 00/00 A2999 RMK AO2 SLP113 T10011002
Conditions at: KAFF (USAF ACADEMY/COS, CO, US) observed 0958 UTC 24 April 2014
Temperature: -0.1°C (32°F)
Dewpoint: -0.2°C (32°F) [RH = 99%]
Pressure (altimeter): 29.99 inches Hg (1015.7 mb[Sea-level pressure: 1011.3 mb]
Winds: from the NE (50 degrees) at 2 MPH (2 knots; 1.0 m/s)
Visibility: 10 or more miles (16+ km)
Ceiling: at least 12,000 feet AGL
Clouds: sky clear below 12,000 feet AGL
Weather: automated observation with no human augmentation;
there may or may not be significant weather present at this time

METAR text: KAFF 240858Z AUTO 32004KT 10SM CLR 01/00 A2998 RMK AO2 SLP110 60001 T00060004 51007
Conditions at: KAFF (USAF ACADEMY/COS, CO, US) observed 0858 UTC 24 April 2014
Temperature: 0.6°C (33°F)
Dewpoint: 0.4°C (33°F) [RH = 99%]
Pressure (altimeter): 29.98 inches Hg (1015.3 mb[Sea-level pressure: 1011.0 mb]
Winds: from the NW (320 degrees) at 5 MPH (4 knots; 2.1 m/s)
Visibility: 10 or more miles (16+ km)
Ceiling: at least 12,000 feet AGL
Clouds: sky clear below 12,000 feet AGL
Weather: automated observation with no human augmentation;
there may or may not be significant weather present at this time

METAR text: KAFF 240758Z AUTO 30007KT 10SM CLR 01/01 A2997 RMK AO2 SNE0709RAB0709E0725 SLP101 P0000 T00100007
Conditions at: KAFF (USAF ACADEMY/COS, CO, US) observed 0758 UTC 24 April 2014
Temperature: 1.0°C (34°F)
Dewpoint: 0.7°C (33°F) [RH = 98%]
Pressure (altimeter): 29.97 inches Hg (1015.0 mb[Sea-level pressure: 1010.1 mb]
Winds: from the WNW (300 degrees) at 8 MPH (7 knots; 3.6 m/s)
Visibility: 10 or more miles (16+ km)
Ceiling: at least 12,000 feet AGL
Clouds: sky clear below 12,000 feet AGL
Weather: automated observation with no human augmentation;
there may or may not be significant weather present at this time

METAR text: KAFF 240725Z AUTO 33008KT 10SM SCT007 01/00 A2997 RMK AO2 SNE0709RAB0709E0725
Conditions at: KAFF (USAF ACADEMY/COS, CO, US) observed 0725 UTC 24 April 2014
Temperature: 1.0°C (34°F)
Dewpoint: 0.0°C (32°F) [RH = 93%]
Pressure (altimeter): 29.97 inches Hg (1015.0 mb)
Winds: from the NNW (330 degrees) at 9 MPH (8 knots; 4.2 m/s)
Visibility: 10 or more miles (16+ km)
Ceiling: at least 12,000 feet AGL
Clouds: scattered clouds at 700 feet AGL
Weather: automated observation with no human augmentation;
there may or may not be significant weather present at this time

METAR text: KAFF 240723Z AUTO 33008KT 10SM -RA SCT007 01/00 A2996 RMK AO2 SNE0709RAB0709
Conditions at: KAFF (USAF ACADEMY/COS, CO, US) observed 0723 UTC 24 April 2014
Temperature: 1.0°C (34°F)
Dewpoint: 0.0°C (32°F) [RH = 93%]
Pressure (altimeter): 29.96 inches Hg (1014.6 mb)
Winds: from the NNW (330 degrees) at 9 MPH (8 knots; 4.2 m/s)
Visibility: 10 or more miles (16+ km)
Ceiling: at least 12,000 feet AGL
Clouds: scattered clouds at 700 feet AGL
Weather: -RA  (light rain)

METAR text: KAFF 240713Z AUTO 34010KT 10SM -RA FEW002 BKN008 01/00 A2996 RMK AO2 CIG 008V010
Conditions at: KAFF (USAF ACADEMY/COS, CO, US) observed 0713 UTC 24 April 2014
Temperature: 1.0°C (34°F)
Dewpoint: 0.0°C (32°F) [RH = 93%]
Pressure (altimeter): 29.96 inches Hg (1014.6 mb)
Winds: from the NNW (340 degrees) at 12 MPH (10 knots; 5.2 m/s)
Visibility: 10 or more miles (16+ km)
Ceiling: 800 feet AGL
Clouds: few clouds at 200 feet AGL
broken clouds at 800 feet AGL
Weather: -RA  (light rain)

METAR text: KAFF 240658Z AUTO 34011KT 5SM -SN BR SCT002 OVC011 01/00 A2997 RMK AO2 SLP101 P0001
Conditions at: KAFF (USAF ACADEMY/COS, CO, US) observed 0658 UTC 24 April 2014
Temperature: 1.0°C (34°F)
Dewpoint: 0.0°C (32°F) [RH = 93%]
Pressure (altimeter): 29.97 inches Hg (1015.0 mb[Sea-level pressure: 1010.1 mb]
Winds: from the NNW (340 degrees) at 13 MPH (11 knots; 5.7 m/s)
Visibility: 5 miles (8 km)
Ceiling: 1100 feet AGL
Clouds: scattered clouds at 200 feet AGL
overcast cloud deck at 1100 feet AGL
Weather: -SN BR  (light snow, mist)

METAR text: KAFF 240648Z AUTO 34013KT 7SM -SN FEW002 BKN009 OVC013 01/00 A2996 RMK AO2 UPB0633E0645SNB0645RAE0633 CIG 009V011
Conditions at: KAFF (USAF ACADEMY/COS, CO, US) observed 0648 UTC 24 April 2014
Temperature: 1.0°C (34°F)
Dewpoint: 0.0°C (32°F) [RH = 93%]
Pressure (altimeter): 29.96 inches Hg (1014.6 mb)
Winds: from the NNW (340 degrees) at 15 MPH (13 knots; 6.8 m/s)
Visibility: 7 miles (11 km)
Ceiling: 900 feet AGL
Clouds: few clouds at 200 feet AGL
broken clouds at 900 feet AGL
overcast cloud deck at 1300 feet AGL
Weather: -SN  (light snow)

METAR text: KAFF 240643Z AUTO 34014KT 10SM UP OVC011 02/00 A2996 RMK AO2 UPB0633RAE0633 OVC V BKN
Conditions at: KAFF (USAF ACADEMY/COS, CO, US) observed 0643 UTC 24 April 2014
Temperature: 2.0°C (36°F)
Dewpoint: 0.0°C (32°F) [RH = 87%]
Pressure (altimeter): 29.96 inches Hg (1014.6 mb)
Winds: from the NNW (340 degrees) at 16 MPH (14 knots; 7.3 m/s)
Visibility: 10 or more miles (16+ km)
Ceiling: 1100 feet AGL
Clouds: overcast cloud deck at 1100 feet AGL
Weather: UP  (unknown precipitation)

METAR text: KAFF 240638Z AUTO 34013G21KT 10SM UP BKN009 OVC014 02/00 A2996 RMK AO2 UPB0633RAE0633 CIG 009V012
Conditions at: KAFF (USAF ACADEMY/COS, CO, US) observed 0638 UTC 24 April 2014
Temperature: 2.0°C (36°F)
Dewpoint: 0.0°C (32°F) [RH = 87%]
Pressure (altimeter): 29.96 inches Hg (1014.6 mb)
Winds: from the NNW (340 degrees) at 15 MPH (13 knots; 6.8 m/sgusting to 24 MPH (21 knots; 10.9 m/s)
Visibility: 10 or more miles (16+ km)
Ceiling: 900 feet AGL
Clouds: broken clouds at 900 feet AGL
overcast cloud deck at 1400 feet AGL
Weather: UP  (unknown precipitation)

METAR text: KAFF 240558Z AUTO 32011KT 10SM -RA OVC013 02/01 A2995 RMK AO2 RAB0535 SLP094 P0000 60001 T00230012 10163 20023 52024
Conditions at: KAFF (USAF ACADEMY/COS, CO, US) observed 0558 UTC 24 April 2014
Temperature: 2.3°C (36°F)
Dewpoint: 1.2°C (34°F) [RH = 92%]
Pressure (altimeter): 29.95 inches Hg (1014.3 mb[Sea-level pressure: 1009.4 mb]
Winds: from the NW (320 degrees) at 13 MPH (11 knots; 5.7 m/s)
Visibility: 10 or more miles (16+ km)
Ceiling: 1300 feet AGL
Clouds: overcast cloud deck at 1300 feet AGL
Weather: -RA  (light rain)

METAR text: KAFF 240535Z AUTO 33011KT 10SM -RA OVC012 03/01 A2994 RMK AO2 RAB0535 OVC V BKN
Conditions at: KAFF (USAF ACADEMY/COS, CO, US) observed 0535 UTC 24 April 2014
Temperature: 3.0°C (37°F)
Dewpoint: 1.0°C (34°F) [RH = 87%]
Pressure (altimeter): 29.94 inches Hg (1014.0 mb)
Winds: from the NNW (330 degrees) at 13 MPH (11 knots; 5.7 m/s)
Visibility: 10 or more miles (16+ km)
Ceiling: 1200 feet AGL
Clouds: overcast cloud deck at 1200 feet AGL
Weather: -RA  (light rain)

METAR text: KAFF 240458Z AUTO 34013KT 10SM OVC010 03/01 A2991 RMK AO2 CIG 010V012 OVC V BKN SLP080 T00260013
Conditions at: KAFF (USAF ACADEMY/COS, CO, US) observed 0458 UTC 24 April 2014
Temperature: 2.6°C (37°F)
Dewpoint: 1.3°C (34°F) [RH = 91%]
Pressure (altimeter): 29.91 inches Hg (1013.0 mb[Sea-level pressure: 1008.0 mb]
Winds: from the NNW (340 degrees) at 15 MPH (13 knots; 6.8 m/s)
Visibility: 10 or more miles (16+ km)
Ceiling: 1000 feet AGL
Clouds: overcast cloud deck at 1000 feet AGL
Weather: automated observation with no human augmentation;
there may or may not be significant weather present at this time

METAR text: KAFF 240438Z AUTO 35019G24KT 10SM BKN013 03/01 A2990 RMK AO2 BKN V SCT
Conditions at: KAFF (USAF ACADEMY/COS, CO, US) observed 0438 UTC 24 April 2014
Temperature: 3.0°C (37°F)
Dewpoint: 1.0°C (34°F) [RH = 87%]
Pressure (altimeter): 29.90 inches Hg (1012.6 mb)
Winds: from the N (350 degrees) at 22 MPH (19 knots; 9.9 m/sgusting to 28 MPH (24 knots; 12.5 m/s)
Visibility: 10 or more miles (16+ km)
Ceiling: 1300 feet AGL
Clouds: broken clouds at 1300 feet AGL
Weather: automated observation with no human augmentation;
there may or may not be significant weather present at this time

METAR text: KAFF 240358Z AUTO 34012KT 10SM FEW110 03/02 A2988 RMK AO2 RAE0336 SLP069 P0001 T00310019
Conditions at: KAFF (USAF ACADEMY/COS, CO, US) observed 0358 UTC 24 April 2014
Temperature: 3.1°C (38°F)
Dewpoint: 1.9°C (35°F) [RH = 92%]
Pressure (altimeter): 29.88 inches Hg (1011.9 mb[Sea-level pressure: 1006.9 mb]
Winds: from the NNW (340 degrees) at 14 MPH (12 knots; 6.2 m/s)
Visibility: 10 or more miles (16+ km)
Ceiling: at least 12,000 feet AGL
Clouds: few clouds at 11000 feet AGL
Weather: automated observation with no human augmentation;
there may or may not be significant weather present at this time

METAR text: KAFF 240336Z AUTO 34011KT 10SM FEW003 03/02 A2986 RMK AO2 RAE0336
Conditions at: KAFF (USAF ACADEMY/COS, CO, US) observed 0336 UTC 24 April 2014
Temperature: 3.0°C (37°F)
Dewpoint: 2.0°C (36°F) [RH = 93%]
Pressure (altimeter): 29.86 inches Hg (1011.3 mb)
Winds: from the NNW (340 degrees) at 13 MPH (11 knots; 5.7 m/s)
Visibility: 10 or more miles (16+ km)
Ceiling: at least 12,000 feet AGL
Clouds: few clouds at 300 feet AGL
Weather: automated observation with no human augmentation;
there may or may not be significant weather present at this time

METAR text: KAFF 240308Z AUTO 33013G24KT 10SM -RA FEW003 03/02 A2987 RMK AO2
Conditions at: KAFF (USAF ACADEMY/COS, CO, US) observed 0308 UTC 24 April 2014
Temperature: 3.0°C (37°F)
Dewpoint: 2.0°C (36°F) [RH = 93%]
Pressure (altimeter): 29.87 inches Hg (1011.6 mb)
Winds: from the NNW (330 degrees) at 15 MPH (13 knots; 6.8 m/sgusting to 28 MPH (24 knots; 12.5 m/s)
Visibility: 10 or more miles (16+ km)
Ceiling: at least 12,000 feet AGL
Clouds: few clouds at 300 feet AGL
Weather: -RA  (light rain)

METAR text: KAFF 240305Z AUTO 33014G24KT 10SM CLR 03/02 A2987 RMK AO2
Conditions at: KAFF (USAF ACADEMY/COS, CO, US) observed 0305 UTC 24 April 2014
Temperature: 3.0°C (37°F)
Dewpoint: 2.0°C (36°F) [RH = 93%]
Pressure (altimeter): 29.87 inches Hg (1011.6 mb)
Winds: from the NNW (330 degrees) at 16 MPH (14 knots; 7.3 m/sgusting to 28 MPH (24 knots; 12.5 m/s)
Visibility: 10 or more miles (16+ km)
Ceiling: at least 12,000 feet AGL
Clouds: sky clear below 12,000 feet AGL
Weather: automated observation with no human augmentation;
there may or may not be significant weather present at this time

METAR text: KAFF 240258Z AUTO 34017G24KT 10SM -RA SCT014 04/02 A2986 RMK AO2 PK WND 35027/0158 RAB0207DZB0204E0207 SLP062 P0000 60000 T00360019 52061
Conditions at: KAFF (USAF ACADEMY/COS, CO, US) observed 0258 UTC 24 April 2014
Temperature: 3.6°C (38°F)
Dewpoint: 1.9°C (35°F) [RH = 89%]
Pressure (altimeter): 29.86 inches Hg (1011.3 mb[Sea-level pressure: 1006.2 mb]
Winds: from the NNW (340 degrees) at 20 MPH (17 knots; 8.8 m/sgusting to 28 MPH (24 knots; 12.5 m/s)
Visibility: 10 or more miles (16+ km)
Ceiling: at least 12,000 feet AGL
Clouds: scattered clouds at 1400 feet AGL
Weather: -RA  (light rain)

METAR text: KAFF 240254Z AUTO 34016G24KT 10SM -RA FEW004 SCT014 04/02 A2986 RMK AO2 RAB0207DZB0204E0207 PRESRR
Conditions at: KAFF (USAF ACADEMY/COS, CO, US) observed 0254 UTC 24 April 2014
Temperature: 4.0°C (39°F)
Dewpoint: 2.0°C (36°F) [RH = 87%]
Pressure (altimeter): 29.86 inches Hg (1011.3 mb)
Winds: from the NNW (340 degrees) at 18 MPH (16 knots; 8.3 m/sgusting to 28 MPH (24 knots; 12.5 m/s)
Visibility: 10 or more miles (16+ km)
Ceiling: at least 12,000 feet AGL
Clouds: few clouds at 400 feet AGL
scattered clouds at 1400 feet AGL
Weather: -RA  (light rain)

METAR text: KAFF 240219Z AUTO 34018G23KT 10SM -RA BKN019 OVC026 07/03 A2982 RMK AO2 RAB0207DZB0204E0207 CIG 019V027
Conditions at: KAFF (USAF ACADEMY/COS, CO, US) observed 0219 UTC 24 April 2014
Temperature: 7.0°C (45°F)
Dewpoint: 3.0°C (37°F) [RH = 76%]
Pressure (altimeter): 29.82 inches Hg (1009.9 mb)
Winds: from the NNW (340 degrees) at 21 MPH (18 knots; 9.4 m/sgusting to 26 MPH (23 knots; 12.0 m/s)
Visibility: 10 or more miles (16+ km)
Ceiling: 1900 feet AGL
Clouds: broken clouds at 1900 feet AGL
overcast cloud deck at 2600 feet AGL
Weather: -RA  (light rain)

METAR text: KAFF 240214Z AUTO 36018G26KT 10SM -RA BKN021 BKN027 07/03 A2981 RMK AO2 RAB0207DZB0204E0207 CIG 021V029 BKN021 V SCT
Conditions at: KAFF (USAF ACADEMY/COS, CO, US) observed 0214 UTC 24 April 2014
Temperature: 7.0°C (45°F)
Dewpoint: 3.0°C (37°F) [RH = 76%]
Pressure (altimeter): 29.81 inches Hg (1009.6 mb)
Winds: from the N (360 degrees) at 21 MPH (18 knots; 9.4 m/sgusting to 30 MPH (26 knots; 13.5 m/s)
Visibility: 10 or more miles (16+ km)
Ceiling: 2100 feet AGL
Clouds: broken clouds at 2100 feet AGL
broken clouds at 2700 feet AGL
Weather: -RA  (light rain)

METAR text: KAFF 240204Z AUTO 35020G27KT 300V360 10SM -DZ SCT024 BKN029 BKN046 08/03 A2980 RMK AO2 DZB0204 CIG 025V095 PRESRR
Conditions at: KAFF (USAF ACADEMY/COS, CO, US) observed 0204 UTC 24 April 2014
Temperature: 8.0°C (46°F)
Dewpoint: 3.0°C (37°F) [RH = 71%]
Pressure (altimeter): 29.80 inches Hg (1009.2 mb)
Winds: from the N (350 degrees) at 23 MPH (20 knots; 10.4 m/sgusting to 31 MPH (27 knots; 14.0 m/s)
Visibility: 10 or more miles (16+ km)
Ceiling: 2900 feet AGL
Clouds: scattered clouds at 2400 feet AGL
broken clouds at 2900 feet AGL
broken clouds at 4600 feet AGL
Weather: -DZ  (light drizzle)

METAR text: KAFF 240158Z AUTO 35018G24KT 10SM SCT021 SCT046 SCT095 08/03 A2978 RMK AO2 PK WND 01032/12 PRESRR SLP034 T00790027
Conditions at: KAFF (USAF ACADEMY/COS, CO, US) observed 0158 UTC 24 April 2014
Temperature: 7.9°C (46°F)
Dewpoint: 2.7°C (37°F) [RH = 70%]
Pressure (altimeter): 29.78 inches Hg (1008.5 mb[Sea-level pressure: 1003.4 mb]
Winds: from the N (350 degrees) at 21 MPH (18 knots; 9.4 m/sgusting to 28 MPH (24 knots; 12.5 m/s)
Visibility: 10 or more miles (16+ km)
Ceiling: at least 12,000 feet AGL
Clouds: scattered clouds at 2100 feet AGL
scattered clouds at 4600 feet AGL
scattered clouds at 9500 feet AGL
Weather: automated observation with no human augmentation;
there may or may not be significant weather present at this time

METAR text: KAFF 240122Z AUTO 34019G31KT 10SM BKN095 11/02 A2972 RMK AO2 WSHFT 15 PRESRR
Conditions at: KAFF (USAF ACADEMY/COS, CO, US) observed 0122 UTC 24 April 2014
Temperature: 11.0°C (52°F)
Dewpoint: 2.0°C (36°F) [RH = 54%]
Pressure (altimeter): 29.72 inches Hg (1006.5 mb)
Winds: from the NNW (340 degrees) at 22 MPH (19 knots; 9.9 m/sgusting to 36 MPH (31 knots; 16.1 m/s)
Visibility: 10 or more miles (16+ km)
Ceiling: 9500 feet AGL
Clouds: broken clouds at 9500 feet AGL
Weather: automated observation with no human augmentation;
there may or may not be significant weather present at this time

METAR text: KAFF 240114Z AUTO 03020G31KT 10SM FEW100 14/M04 A2970 RMK AO2 WSHFT 11
Conditions at: KAFF (USAF ACADEMY/COS, CO, US) observed 0114 UTC 24 April 2014
Temperature: 14.0°C (57°F)
Dewpoint: -4.0°C (25°F) [RH = 28%]
Pressure (altimeter): 29.70 inches Hg (1005.8 mb)
Winds: from the NNE (30 degrees) at 23 MPH (20 knots; 10.4 m/sgusting to 36 MPH (31 knots; 16.1 m/s)
Visibility: 10 or more miles (16+ km)
Ceiling: at least 12,000 feet AGL
Clouds: few clouds at 10000 feet AGL
Weather: automated observation with no human augmentation;
there may or may not be significant weather present at this time

METAR text: KAFF 240109Z AUTO 34018KT 10SM FEW100 15/M06 A2969 RMK AO2 WSHFT 06
Conditions at: KAFF (USAF ACADEMY/COS, CO, US) observed 0109 UTC 24 April 2014
Temperature: 15.0°C (59°F)
Dewpoint: -6.0°C (21°F) [RH = 23%]
Pressure (altimeter): 29.69 inches Hg (1005.5 mb)
Winds: from the NNW (340 degrees) at 21 MPH (18 knots; 9.4 m/s)
Visibility: 10 or more miles (16+ km)
Ceiling: at least 12,000 feet AGL
Clouds: few clouds at 10000 feet AGL
Weather: automated observation with no human augmentation;
there may or may not be significant weather present at this time

METAR text: KAFF 240103Z AUTO 31011G23KT 10SM CLR 15/M06 A2968 RMK AO2 WSHFT 0058
Conditions at: KAFF (USAF ACADEMY/COS, CO, US) observed 0103 UTC 24 April 2014
Temperature: 15.0°C (59°F)
Dewpoint: -6.0°C (21°F) [RH = 23%]
Pressure (altimeter): 29.68 inches Hg (1005.2 mb)
Winds: from the NW (310 degrees) at 13 MPH (11 knots; 5.7 m/sgusting to 26 MPH (23 knots; 12.0 m/s)
Visibility: 10 or more miles (16+ km)
Ceiling: at least 12,000 feet AGL
Clouds: sky clear below 12,000 feet AGL
Weather: automated observation with no human augmentation;
there may or may not be significant weather present at this time

METAR text: KAFF 240058Z AUTO 28017G31KT 10SM CLR 15/M06 A2967 RMK AO2 PK WND 19040/06 SLP985 T01471056
Conditions at: KAFF (USAF ACADEMY/COS, CO, US) observed 0058 UTC 24 April 2014
Temperature: 14.7°C (58°F)
Dewpoint: -5.6°C (22°F) [RH = 24%]
Pressure (altimeter): 29.67 inches Hg (1004.8 mb[Sea-level pressure: 998.5 mb]
Winds: from the W (280 degrees) at 20 MPH (17 knots; 8.8 m/sgusting to 36 MPH (31 knots; 16.1 m/s)
Visibility: 10 or more miles (16+ km)
Ceiling: at least 12,000 feet AGL
Clouds: sky clear below 12,000 feet AGL
Weather: automated observation with no human augmentation;
there may or may not be significant weather present at this time

METAR text: KAFF 232358Z COR VRB06G30KT 10SM FEW120 16/M08 A2964 RMK AO2A PK WND 12055/34 DZB2337E2347 SLP969 P0000 60000 T01601079 10202 20152 55002 COR 0001
Conditions at: KAFF (USAF ACADEMY/COS, CO, US) observed 2358 UTC 23 April 2014
Temperature: 16.0°C (61°F)
Dewpoint: -7.9°C (18°F) [RH = 19%]
Pressure (altimeter): 29.64 inches Hg (1003.8 mb[Sea-level pressure: 996.9 mb]
Winds: variable direction winds at 7 MPH (6 knots; 3.1 m/sgusting to 34 MPH (30 knots; 15.6 m/s)
Visibility: 10 or more miles (16+ km)
Ceiling: at least 12,000 feet AGL
Clouds: few clouds at 12000 feet AGL
Weather: no significant weather observed at this time

METAR text: KAFF 232349Z AUTO 07022G30KT 10SM FEW120 15/M08 A2964 RMK AO2 WSHFT 46 DZB2337E2347
Conditions at: KAFF (USAF ACADEMY/COS, CO, US) observed 2349 UTC 23 April 2014
Temperature: 15.0°C (59°F)
Dewpoint: -8.0°C (18°F) [RH = 20%]
Pressure (altimeter): 29.64 inches Hg (1003.8 mb)
Winds: from the ENE (70 degrees) at 25 MPH (22 knots; 11.4 m/sgusting to 34 MPH (30 knots; 15.6 m/s)
Visibility: 10 or more miles (16+ km)
Ceiling: at least 12,000 feet AGL
Clouds: few clouds at 12000 feet AGL
Weather: automated observation with no human augmentation;
there may or may not be significant weather present at this time

METAR text: KAFF 232338Z AUTO 10020G36KT 050V140 9SM CLR 17/M06 A2964 RMK AO2 WSHFT 34 DZB2337
Conditions at: KAFF (USAF ACADEMY/COS, CO, US) observed 2338 UTC 23 April 2014
Temperature: 17.0°C (63°F)
Dewpoint: -6.0°C (21°F) [RH = 20%]
Pressure (altimeter): 29.64 inches Hg (1003.8 mb)
Winds: from the E (100 degrees) at 23 MPH (20 knots; 10.4 m/sgusting to 41 MPH (36 knots; 18.7 m/s)
Visibility: 9 miles (14 km)
Ceiling: at least 12,000 feet AGL
Clouds: sky clear below 12,000 feet AGL
Weather: automated observation with no human augmentation;
there may or may not be significant weather present at this time

METAR text: KAFF 232334Z AUTO 14021G28KT 10SM CLR 18/M08 A2964 RMK AO2 WSHFT 27
Conditions at: KAFF (USAF ACADEMY/COS, CO, US) observed 2334 UTC 23 April 2014
Temperature: 18.0°C (64°F)
Dewpoint: -8.0°C (18°F) [RH = 16%]
Pressure (altimeter): 29.64 inches Hg (1003.8 mb)
Winds: from the SE (140 degrees) at 24 MPH (21 knots; 10.9 m/sgusting to 32 MPH (28 knots; 14.6 m/s)
Visibility: 10 or more miles (16+ km)
Ceiling: at least 12,000 feet AGL
Clouds: sky clear below 12,000 feet AGL
Weather: automated observation with no human augmentation;
there may or may not be significant weather present at this time

METAR text: KAFF 232258Z AUTO 20007KT 10SM FEW130 19/M10 A2962 RMK AO2 SLP952 T01911104
Conditions at: KAFF (USAF ACADEMY/COS, CO, US) observed 2258 UTC 23 April 2014
Temperature: 19.1°C (66°F)
Dewpoint: -10.4°C (13°F) [RH = 13%]
Pressure (altimeter): 29.62 inches Hg (1003.1 mb[Sea-level pressure: 995.2 mb]
Winds: from the SSW (200 degrees) at 8 MPH (7 knots; 3.6 m/s)
Visibility: 10 or more miles (16+ km)
Ceiling: at least 12,000 feet AGL
Clouds: few clouds at 13000 feet AGL
Weather: automated observation with no human augmentation;
there may or may not be significant weather present at this time

METAR text: KAFF 232158Z AUTO 25008G19KT 10SM FEW140 20/M09 A2963 RMK AO2 SLP961 T02001087
Conditions at: KAFF (USAF ACADEMY/COS, CO, US) observed 2158 UTC 23 April 2014
Temperature: 20.0°C (68°F)
Dewpoint: -8.7°C (16°F) [RH = 14%]
Pressure (altimeter): 29.63 inches Hg (1003.5 mb[Sea-level pressure: 996.1 mb]
Winds: from the WSW (250 degrees) at 9 MPH (8 knots; 4.2 m/sgusting to 22 MPH (19 knots; 9.9 m/s)
Visibility: 10 or more miles (16+ km)
Ceiling: at least 12,000 feet AGL
Clouds: few clouds at 14000 feet AGL
Weather: automated observation with no human augmentation;
there may or may not be significant weather present at this time

METAR text: KAFF 232058Z 26013G18KT 10SM FEW110 SCT180 19/M07 A2964 RMK AO2A SLP964 T01931073 56010
Conditions at: KAFF (USAF ACADEMY/COS, CO, US) observed 2058 UTC 23 April 2014
Temperature: 19.3°C (67°F)
Dewpoint: -7.3°C (19°F) [RH = 16%]
Pressure (altimeter): 29.64 inches Hg (1003.8 mb[Sea-level pressure: 996.4 mb]
Winds: from the W (260 degrees) at 15 MPH (13 knots; 6.8 m/sgusting to 21 MPH (18 knots; 9.4 m/s)
Visibility: 10 or more miles (16+ km)
Ceiling: at least 12,000 feet AGL
Clouds: few clouds at 11000 feet AGL
scattered clouds at 18000 feet AGL
Weather: no significant weather observed at this time

METAR text: KAFF 231958Z 17006KT 10SM SCT110 SCT150 SCT180 20/M08 A2965 RMK AO2A SLP968 T01971078
Conditions at: KAFF (USAF ACADEMY/COS, CO, US) observed 1958 UTC 23 April 2014
Temperature: 19.7°C (67°F)
Dewpoint: -7.8°C (18°F) [RH = 15%]
Pressure (altimeter): 29.65 inches Hg (1004.1 mb[Sea-level pressure: 996.8 mb]
Winds: from the S (170 degrees) at 7 MPH (6 knots; 3.1 m/s)
Visibility: 10 or more miles (16+ km)
Ceiling: at least 12,000 feet AGL
Clouds: scattered clouds at 11000 feet AGL
scattered clouds at 15000 feet AGL
scattered clouds at 18000 feet AGL
Weather: no significant weather observed at this time

METAR text: KAFF 231907Z AUTO 25012KT 10SM FEW100 SCT180 SCT200 20/M08 A2965 RMK AO2 WSHFT 04
Conditions at: KAFF (USAF ACADEMY/COS, CO, US) observed 1907 UTC 23 April 2014
Temperature: 20.0°C (68°F)
Dewpoint: -8.0°C (18°F) [RH = 14%]
Pressure (altimeter): 29.65 inches Hg (1004.1 mb)
Winds: from the WSW (250 degrees) at 14 MPH (12 knots; 6.2 m/s)
Visibility: 10 or more miles (16+ km)
Ceiling: at least 12,000 feet AGL
Clouds: few clouds at 10000 feet AGL
scattered clouds at 18000 feet AGL
scattered clouds at 20000 feet AGL
Weather: automated observation with no human augmentation;
there may or may not be significant weather present at this time

METAR text: KAFF 231858Z AUTO 28010G15KT 240V300 10SM FEW100 SCT200 20/M08 A2965 RMK AO2 PK WND 28028/05 SLP968 T02011084
Conditions at: KAFF (USAF ACADEMY/COS, CO, US) observed 1858 UTC 23 April 2014
Temperature: 20.1°C (68°F)
Dewpoint: -8.4°C (17°F) [RH = 14%]
Pressure (altimeter): 29.65 inches Hg (1004.1 mb[Sea-level pressure: 996.8 mb]
Winds: from the W (280 degrees) at 12 MPH (10 knots; 5.2 m/sgusting to 17 MPH (15 knots; 7.8 m/s)
Visibility: 10 or more miles (16+ km)
Ceiling: at least 12,000 feet AGL
Clouds: few clouds at 10000 feet AGL
scattered clouds at 20000 feet AGL
Weather: automated observation with no human augmentation;
there may or may not be significant weather present at this time

METAR text: KAFF 231807Z AUTO 26019G28KT 10SM FEW190 20/M09 A2967 RMK AO2 WSHFT 03
Conditions at: KAFF (USAF ACADEMY/COS, CO, US) observed 1807 UTC 23 April 2014
Temperature: 20.0°C (68°F)
Dewpoint: -9.0°C (16°F) [RH = 13%]
Pressure (altimeter): 29.67 inches Hg (1004.8 mb)
Winds: from the W (260 degrees) at 22 MPH (19 knots; 9.9 m/sgusting to 32 MPH (28 knots; 14.6 m/s)
Visibility: 10 or more miles (16+ km)
Ceiling: at least 12,000 feet AGL
Clouds: few clouds at 19000 feet AGL
Weather: automated observation with no human augmentation;
there may or may not be significant weather present at this time

METAR text: KAFF 231803Z AUTO 30013G30KT 10SM FEW200 20/M10 A2968 RMK AO2 WSHFT 1749
Conditions at: KAFF (USAF ACADEMY/COS, CO, US) observed 1803 UTC 23 April 2014
Temperature: 20.0°C (68°F)
Dewpoint: -10.0°C (14°F) [RH = 12%]
Pressure (altimeter): 29.68 inches Hg (1005.2 mb)
Winds: from the WNW (300 degrees) at 15 MPH (13 knots; 6.8 m/sgusting to 34 MPH (30 knots; 15.6 m/s)
Visibility: 10 or more miles (16+ km)
Ceiling: at least 12,000 feet AGL
Clouds: few clouds at 20000 feet AGL
Weather: automated observation with no human augmentation;
there may or may not be significant weather present at this time

METAR text: KAFF 231758Z AUTO 28022G30KT 10SM FEW200 20/M10 A2967 RMK AO2 PK WND 30035/56 SLP970 T02001099 10200 20096 58008
Conditions at: KAFF (USAF ACADEMY/COS, CO, US) observed 1758 UTC 23 April 2014
Temperature: 20.0°C (68°F)
Dewpoint: -9.9°C (14°F) [RH = 12%]
Pressure (altimeter): 29.67 inches Hg (1004.8 mb[Sea-level pressure: 997.0 mb]
Winds: from the W (280 degrees) at 25 MPH (22 knots; 11.4 m/sgusting to 34 MPH (30 knots; 15.6 m/s)
Visibility: 10 or more miles (16+ km)
Ceiling: at least 12,000 feet AGL
Clouds: few clouds at 20000 feet AGL
Weather: automated observation with no human augmentation;
there may or may not be significant weather present at this time

METAR text: KAFF 231747Z AUTO 28011G18KT 240V340 10SM CLR 19/M10 A2968 RMK AO2 WSHFT 46
Conditions at: KAFF (USAF ACADEMY/COS, CO, US) observed 1747 UTC 23 April 2014
Temperature: 19.0°C (66°F)
Dewpoint: -10.0°C (14°F) [RH = 13%]
Pressure (altimeter): 29.68 inches Hg (1005.2 mb)
Winds: from the W (280 degrees) at 13 MPH (11 knots; 5.7 m/sgusting to 21 MPH (18 knots; 9.4 m/s)
Visibility: 10 or more miles (16+ km)
Ceiling: at least 12,000 feet AGL
Clouds: sky clear below 12,000 feet AGL
Weather: automated observation with no human augmentation;
there may or may not be significant weather present at this time

METAR text: KAFF 231739Z AUTO 22014G24KT 160V250 10SM CLR 20/M08 A2969 RMK AO2 WSHFT 37
Conditions at: KAFF (USAF ACADEMY/COS, CO, US) observed 1739 UTC 23 April 2014
Temperature: 20.0°C (68°F)
Dewpoint: -8.0°C (18°F) [RH = 14%]
Pressure (altimeter): 29.69 inches Hg (1005.5 mb)
Winds: from the SW (220 degrees) at 16 MPH (14 knots; 7.3 m/sgusting to 28 MPH (24 knots; 12.5 m/s)
Visibility: 10 or more miles (16+ km)
Ceiling: at least 12,000 feet AGL
Clouds: sky clear below 12,000 feet AGL
Weather: automated observation with no human augmentation;
there may or may not be significant weather present at this time

METAR text: KAFF 231737Z AUTO 18013G24KT 10SM CLR 20/M08 A2969 RMK AO2 WSHFT 32
Conditions at: KAFF (USAF ACADEMY/COS, CO, US) observed 1737 UTC 23 April 2014
Temperature: 20.0°C (68°F)
Dewpoint: -8.0°C (18°F) [RH = 14%]
Pressure (altimeter): 29.69 inches Hg (1005.5 mb)
Winds: from the S (180 degrees) at 15 MPH (13 knots; 6.8 m/sgusting to 28 MPH (24 knots; 12.5 m/s)
Visibility: 10 or more miles (16+ km)
Ceiling: at least 12,000 feet AGL
Clouds: sky clear below 12,000 feet AGL
Weather: automated observation with no human augmentation;
there may or may not be significant weather present at this time

METAR text: KAFF 231709Z AUTO 23011G20KT 190V270 10SM FEW190 19/M08 A2969 RMK AO2 WSHFT 08
Conditions at: KAFF (USAF ACADEMY/COS, CO, US) observed 1709 UTC 23 April 2014
Temperature: 19.0°C (66°F)
Dewpoint: -8.0°C (18°F) [RH = 15%]
Pressure (altimeter): 29.69 inches Hg (1005.5 mb)
Winds: from the SW (230 degrees) at 13 MPH (11 knots; 5.7 m/sgusting to 23 MPH (20 knots; 10.4 m/s)
Visibility: 10 or more miles (16+ km)
Ceiling: at least 12,000 feet AGL
Clouds: few clouds at 19000 feet AGL
Weather: automated observation with no human augmentation;
there may or may not be significant weather present at this time

METAR text: KAFF 231705Z AUTO 25014G22KT 10SM FEW190 18/M07 A2969 RMK AO2 WSHFT 1657
Conditions at: KAFF (USAF ACADEMY/COS, CO, US) observed 1705 UTC 23 April 2014
Temperature: 18.0°C (64°F)
Dewpoint: -7.0°C (19°F) [RH = 18%]
Pressure (altimeter): 29.69 inches Hg (1005.5 mb)
Winds: from the WSW (250 degrees) at 16 MPH (14 knots; 7.3 m/sgusting to 25 MPH (22 knots; 11.4 m/s)
Visibility: 10 or more miles (16+ km)
Ceiling: at least 12,000 feet AGL
Clouds: few clouds at 19000 feet AGL
Weather: automated observation with no human augmentation;
there may or may not be significant weather present at this time

METAR text: KAFF 231658Z AUTO 21012G20KT 10SM FEW100 SCT190 18/M07 A2968 RMK AO2 PK WND 25031/01 SLP968 T01841074
Conditions at: KAFF (USAF ACADEMY/COS, CO, US) observed 1658 UTC 23 April 2014
Temperature: 18.4°C (65°F)
Dewpoint: -7.4°C (19°F) [RH = 17%]
Pressure (altimeter): 29.68 inches Hg (1005.2 mb[Sea-level pressure: 996.8 mb]
Winds: from the SSW (210 degrees) at 14 MPH (12 knots; 6.2 m/sgusting to 23 MPH (20 knots; 10.4 m/s)
Visibility: 10 or more miles (16+ km)
Ceiling: at least 12,000 feet AGL
Clouds: few clouds at 10000 feet AGL
scattered clouds at 19000 feet AGL
Weather: automated observation with no human augmentation;
there may or may not be significant weather present at this time

METAR text: KAFF 231624Z 21018G22KT 170V250 10SM CLR 18/M08 A2968 RMK AO2A WSHFT 15 PRESFR
Conditions at: KAFF (USAF ACADEMY/COS, CO, US) observed 1624 UTC 23 April 2014
Temperature: 18.0°C (64°F)
Dewpoint: -8.0°C (18°F) [RH = 16%]
Pressure (altimeter): 29.68 inches Hg (1005.2 mb)
Winds: from the SSW (210 degrees) at 21 MPH (18 knots; 9.4 m/sgusting to 25 MPH (22 knots; 11.4 m/s)
Visibility: 10 or more miles (16+ km)
Ceiling: at least 12,000 feet AGL
Clouds: sky clear below 12,000 feet AGL
Weather: no significant weather observed at this time

METAR text: KAFF 231614Z 25017G22KT 200V270 10SM CLR 18/M07 A2970 RMK AO2A WSHFT 12
Conditions at: KAFF (USAF ACADEMY/COS, CO, US) observed 1614 UTC 23 April 2014
Temperature: 18.0°C (64°F)
Dewpoint: -7.0°C (19°F) [RH = 18%]
Pressure (altimeter): 29.70 inches Hg (1005.8 mb)
Winds: from the WSW (250 degrees) at 20 MPH (17 knots; 8.8 m/sgusting to 25 MPH (22 knots; 11.4 m/s)
Visibility: 10 or more miles (16+ km)
Ceiling: at least 12,000 feet AGL
Clouds: sky clear below 12,000 feet AGL
Weather: no significant weather observed at this time

METAR text: KAFF 231605Z 20012G27KT 10SM CLR 18/M07 A2969 RMK AO2A WSHFT 1553
Conditions at: KAFF (USAF ACADEMY/COS, CO, US) observed 1605 UTC 23 April 2014
Temperature: 18.0°C (64°F)
Dewpoint: -7.0°C (19°F) [RH = 18%]
Pressure (altimeter): 29.69 inches Hg (1005.5 mb)
Winds: from the SSW (200 degrees) at 14 MPH (12 knots; 6.2 m/sgusting to 31 MPH (27 knots; 14.0 m/s)
Visibility: 10 or more miles (16+ km)
Ceiling: at least 12,000 feet AGL
Clouds: sky clear below 12,000 feet AGL
Weather: no significant weather observed at this time

METAR text: KAFF 231558Z 23018G26KT 10SM CLR 18/M08 A2970 RMK AO2A PK WND 23029/29 SLP975 T01831076
Conditions at: KAFF (USAF ACADEMY/COS, CO, US) observed 1558 UTC 23 April 2014
Temperature: 18.3°C (65°F)
Dewpoint: -7.6°C (18°F) [RH = 16%]
Pressure (altimeter): 29.70 inches Hg (1005.8 mb[Sea-level pressure: 997.5 mb]
Winds: from the SW (230 degrees) at 21 MPH (18 knots; 9.4 m/sgusting to 30 MPH (26 knots; 13.5 m/s)
Visibility: 10 or more miles (16+ km)
Ceiling: at least 12,000 feet AGL
Clouds: sky clear below 12,000 feet AGL
Weather: no significant weather observed at this time

METAR text: KAFF 231503Z 22011G23KT 130V270 10SM CLR 17/M06 A2970 RMK AO2A WSHFT 02
Conditions at: KAFF (USAF ACADEMY/COS, CO, US) observed 1503 UTC 23 April 2014
Temperature: 17.0°C (63°F)
Dewpoint: -6.0°C (21°F) [RH = 20%]
Pressure (altimeter): 29.70 inches Hg (1005.8 mb)
Winds: from the SW (220 degrees) at 13 MPH (11 knots; 5.7 m/sgusting to 26 MPH (23 knots; 12.0 m/s)
Visibility: 10 or more miles (16+ km)
Ceiling: at least 12,000 feet AGL
Clouds: sky clear below 12,000 feet AGL
Weather: no significant weather observed at this time

METAR text: KAFF 231458Z 25010G23KT 10SM CLR 16/M06 A2970 RMK AO2A SLP980 T01641063 50005
Conditions at: KAFF (USAF ACADEMY/COS, CO, US) observed 1458 UTC 23 April 2014
Temperature: 16.4°C (62°F)
Dewpoint: -6.3°C (21°F) [RH = 20%]
Pressure (altimeter): 29.70 inches Hg (1005.8 mb[Sea-level pressure: 998.0 mb]
Winds: from the WSW (250 degrees) at 12 MPH (10 knots; 5.2 m/sgusting to 26 MPH (23 knots; 12.0 m/s)
Visibility: 10 or more miles (16+ km)
Ceiling: at least 12,000 feet AGL
Clouds: sky clear below 12,000 feet AGL
Weather: no significant weather observed at this time

METAR text: KAFF 231455Z 22016G23KT 10SM CLR 16/M06 A2970 RMK AO2A WSHFT 53
Conditions at: KAFF (USAF ACADEMY/COS, CO, US) observed 1455 UTC 23 April 2014
Temperature: 16.0°C (61°F)
Dewpoint: -6.0°C (21°F) [RH = 21%]
Pressure (altimeter): 29.70 inches Hg (1005.8 mb)
Winds: from the SW (220 degrees) at 18 MPH (16 knots; 8.3 m/sgusting to 26 MPH (23 knots; 12.0 m/s)
Visibility: 10 or more miles (16+ km)
Ceiling: at least 12,000 feet AGL
Clouds: sky clear below 12,000 feet AGL
Weather: no significant weather observed at this time

METAR text: KAFF 231440Z 22012G18KT 200V270 10SM CLR 16/M05 A2971 RMK AO2A WSHFT 38
Conditions at: KAFF (USAF ACADEMY/COS, CO, US) observed 1440 UTC 23 April 2014
Temperature: 16.0°C (61°F)
Dewpoint: -5.0°C (23°F) [RH = 23%]
Pressure (altimeter): 29.71 inches Hg (1006.2 mb)
Winds: from the SW (220 degrees) at 14 MPH (12 knots; 6.2 m/sgusting to 21 MPH (18 knots; 9.4 m/s)
Visibility: 10 or more miles (16+ km)
Ceiling: at least 12,000 feet AGL
Clouds: sky clear below 12,000 feet AGL
Weather: no significant weather observed at this time

METAR text: KAFF 231358Z 21007KT 10SM CLR 13/M07 A2971 RMK AO2A SLP984 T01261067
Conditions at: KAFF (USAF ACADEMY/COS, CO, US) observed 1358 UTC 23 April 2014
Temperature: 12.6°C (55°F)
Dewpoint: -6.7°C (20°F) [RH = 25%]
Pressure (altimeter): 29.71 inches Hg (1006.2 mb[Sea-level pressure: 998.4 mb]
Winds: from the SSW (210 degrees) at 8 MPH (7 knots; 3.6 m/s)
Visibility: 10 or more miles (16+ km)
Ceiling: at least 12,000 feet AGL
Clouds: sky clear below 12,000 feet AGL
Weather: no significant weather observed at this time

METAR text: KAFF 231303Z COR VRB06KT 10SM CLR 12/M04 A2970 RMK AO2A COR 1306
Conditions at: KAFF (USAF ACADEMY/COS, CO, US) observed 1303 UTC 23 April 2014
Temperature: 12.0°C (54°F)
Dewpoint: -4.0°C (25°F) [RH = 32%]
Pressure (altimeter): 29.70 inches Hg (1005.8 mb)
Winds: variable direction winds at 7 MPH (6 knots; 3.1 m/s)
Visibility: 10 or more miles (16+ km)
Ceiling: at least 12,000 feet AGL
Clouds: sky clear below 12,000 feet AGL
Weather: no significant weather observed at this time

METAR text: KAFF 231258Z AUTO 25009G20KT 6SM HZ CLR 11/M04 A2970 RMK AO2 SLP980 T01081036
Conditions at: KAFF (USAF ACADEMY/COS, CO, US) observed 1258 UTC 23 April 2014
Temperature: 10.8°C (51°F)
Dewpoint: -3.6°C (26°F) [RH = 36%]
Pressure (altimeter): 29.70 inches Hg (1005.8 mb[Sea-level pressure: 998.0 mb]
Winds: from the WSW (250 degrees) at 10 MPH (9 knots; 4.7 m/sgusting to 23 MPH (20 knots; 10.4 m/s)
Visibility: 6 miles (10 km)
Ceiling: at least 12,000 feet AGL
Clouds: sky clear below 12,000 feet AGL
Weather: HZ  (haze)

METAR text: KAFF 231158Z AUTO 14005KT 10SM CLR 11/M03 A2968 RMK AO2 SLP973 T01141033 10142 20080 56012
Conditions at: KAFF (USAF ACADEMY/COS, CO, US) observed 1158 UTC 23 April 2014
Temperature: 11.4°C (53°F)
Dewpoint: -3.3°C (26°F) [RH = 36%]
Pressure (altimeter): 29.68 inches Hg (1005.2 mb[Sea-level pressure: 997.3 mb]
Winds: from the SE (140 degrees) at 6 MPH (5 knots; 2.6 m/s)
Visibility: 10 or more miles (16+ km)
Ceiling: at least 12,000 feet AGL
Clouds: sky clear below 12,000 feet AGL
Weather: automated observation with no human augmentation;
there may or may not be significant weather present at this time

METAR text: KAFF 231115Z AUTO 13012KT 070V150 10SM CLR 12/M04 A2969 RMK AO2 WSHFT 10
Conditions at: KAFF (USAF ACADEMY/COS, CO, US) observed 1115 UTC 23 April 2014
Temperature: 12.0°C (54°F)
Dewpoint: -4.0°C (25°F) [RH = 32%]
Pressure (altimeter): 29.69 inches Hg (1005.5 mb)
Winds: from the SE (130 degrees) at 14 MPH (12 knots; 6.2 m/s)
Visibility: 10 or more miles (16+ km)
Ceiling: at least 12,000 feet AGL
Clouds: sky clear below 12,000 feet AGL
Weather: automated observation with no human augmentation;
there may or may not be significant weather present at this time

METAR text: KAFF 231058Z AUTO VRB05KT 10SM CLR 12/M02 A2968 RMK AO2 SLP968 T01191025
Conditions at: KAFF (USAF ACADEMY/COS, CO, US) observed 1058 UTC 23 April 2014
Temperature: 11.9°C (53°F)
Dewpoint: -2.5°C (28°F) [RH = 36%]
Pressure (altimeter): 29.68 inches Hg (1005.2 mb[Sea-level pressure: 996.8 mb]
Winds: variable direction winds at 6 MPH (5 knots; 2.6 m/s)
Visibility: 10 or more miles (16+ km)
Ceiling: at least 12,000 feet AGL
Clouds: sky clear below 12,000 feet AGL
Weather: automated observation with no human augmentation;
there may or may not be significant weather present at this time

METAR text: KAFF 230958Z AUTO 05002KT 10SM CLR 09/00 A2970 RMK AO2 SLP986 T00860001
Conditions at: KAFF (USAF ACADEMY/COS, CO, US) observed 0958 UTC 23 April 2014
Temperature: 8.6°C (47°F)
Dewpoint: 0.1°C (32°F) [RH = 55%]
Pressure (altimeter): 29.70 inches Hg (1005.8 mb[Sea-level pressure: 998.6 mb]
Winds: from the NE (50 degrees) at 2 MPH (2 knots; 1.0 m/s)
Visibility: 10 or more miles (16+ km)
Ceiling: at least 12,000 feet AGL
Clouds: sky clear below 12,000 feet AGL
Weather: automated observation with no human augmentation;
there may or may not be significant weather present at this time

METAR text: KAFF 230858Z AUTO 09007KT 10SM CLR 10/01 A2972 RMK AO2 SLP988 T01040005 57019
Conditions at: KAFF (USAF ACADEMY/COS, CO, US) observed 0858 UTC 23 April 2014
Temperature: 10.4°C (51°F)
Dewpoint: 0.5°C (33°F) [RH = 50%]
Pressure (altimeter): 29.72 inches Hg (1006.5 mb[Sea-level pressure: 998.8 mb]
Winds: from the E (90 degrees) at 8 MPH (7 knots; 3.6 m/s)
Visibility: 10 or more miles (16+ km)
Ceiling: at least 12,000 feet AGL
Clouds: sky clear below 12,000 feet AGL
Weather: automated observation with no human augmentation;
there may or may not be significant weather present at this time

METAR text: KAFF 230758Z AUTO 16007KT 10SM CLR 09/01 A2974 RMK AO2 SLP995 T00920012
Conditions at: KAFF (USAF ACADEMY/COS, CO, US) observed 0758 UTC 23 April 2014
Temperature: 9.2°C (49°F)
Dewpoint: 1.2°C (34°F) [RH = 57%]
Pressure (altimeter): 29.74 inches Hg (1007.2 mb[Sea-level pressure: 999.5 mb]
Winds: from the SSE (160 degrees) at 8 MPH (7 knots; 3.6 m/s)
Visibility: 10 or more miles (16+ km)
Ceiling: at least 12,000 feet AGL
Clouds: sky clear below 12,000 feet AGL
Weather: automated observation with no human augmentation;
there may or may not be significant weather present at this time

METAR text: KAFF 230658Z AUTO VRB02KT 10SM CLR 10/01 A2976 RMK AO2 SLP002 T01040012 402300003
Conditions at: KAFF (USAF ACADEMY/COS, CO, US) observed 0658 UTC 23 April 2014
Temperature: 10.4°C (51°F)
Dewpoint: 1.2°C (34°F) [RH = 53%]
Pressure (altimeter): 29.76 inches Hg (1007.9 mb[Sea-level pressure: 1000.2 mb]
Winds: variable direction winds at 2 MPH (2 knots; 1.0 m/s)
Visibility: 10 or more miles (16+ km)
Ceiling: at least 12,000 feet AGL
Clouds: sky clear below 12,000 feet AGL
Weather: automated observation with no human augmentation;
there may or may not be significant weather present at this time

METAR text: KAFF 230558Z AUTO VRB05KT 10SM CLR 13/01 A2978 RMK AO2 SLP009 T01290008 10199 20127 58010
Conditions at: KAFF (USAF ACADEMY/COS, CO, US) observed 0558 UTC 23 April 2014
Temperature: 12.9°C (55°F)
Dewpoint: 0.8°C (33°F) [RH = 44%]
Pressure (altimeter): 29.78 inches Hg (1008.5 mb[Sea-level pressure: 1000.9 mb]
Winds: variable direction winds at 6 MPH (5 knots; 2.6 m/s)
Visibility: 10 or more miles (16+ km)
Ceiling: at least 12,000 feet AGL
Clouds: sky clear below 12,000 feet AGL
Weather: automated observation with no human augmentation;
there may or may not be significant weather present at this time

METAR text: KAFF 230458Z AUTO 13005KT 10SM FEW110 15/M01 A2979 RMK AO2 SLP012 T01541014
Conditions at: KAFF (USAF ACADEMY/COS, CO, US) observed 0458 UTC 23 April 2014
Temperature: 15.4°C (60°F)
Dewpoint: -1.4°C (29°F) [RH = 32%]
Pressure (altimeter): 29.79 inches Hg (1008.9 mb[Sea-level pressure: 1001.2 mb]
Winds: from the SE (130 degrees) at 6 MPH (5 knots; 2.6 m/s)
Visibility: 10 or more miles (16+ km)
Ceiling: at least 12,000 feet AGL
Clouds: few clouds at 11000 feet AGL
Weather: automated observation with no human augmentation;
there may or may not be significant weather present at this time

METAR text: KAFF 230358Z AUTO 15006KT 10SM FEW210 15/M01 A2981 RMK AO2 SLP024 T01521012
Conditions at: KAFF (USAF ACADEMY/COS, CO, US) observed 0358 UTC 23 April 2014
Temperature: 15.2°C (59°F)
Dewpoint: -1.2°C (30°F) [RH = 32%]
Pressure (altimeter): 29.81 inches Hg (1009.6 mb[Sea-level pressure: 1002.4 mb]
Winds: from the SSE (150 degrees) at 7 MPH (6 knots; 3.1 m/s)
Visibility: 10 or more miles (16+ km)
Ceiling: at least 12,000 feet AGL
Clouds: few clouds at 21000 feet AGL
Weather: automated observation with no human augmentation;
there may or may not be significant weather present at this time

METAR text: KAFF 230258Z AUTO 17005KT 10SM SCT100 15/00 A2981 RMK AO2 SLP034 T01520002 55008
Conditions at: KAFF (USAF ACADEMY/COS, CO, US) observed 0258 UTC 23 April 2014
Temperature: 15.2°C (59°F)
Dewpoint: 0.2°C (32°F) [RH = 36%]
Pressure (altimeter): 29.81 inches Hg (1009.6 mb[Sea-level pressure: 1003.4 mb]
Winds: from the S (170 degrees) at 6 MPH (5 knots; 2.6 m/s)
Visibility: 10 or more miles (16+ km)
Ceiling: at least 12,000 feet AGL
Clouds: scattered clouds at 10000 feet AGL
Weather: automated observation with no human augmentation;
there may or may not be significant weather present at this time

METAR text: KAFF 230158Z AUTO 15007KT 10SM CLR 18/M01 A2980 RMK AO2 SLP036 T01821010
Conditions at: KAFF (USAF ACADEMY/COS, CO, US) observed 0158 UTC 23 April 2014
Temperature: 18.2°C (65°F)
Dewpoint: -1.0°C (30°F) [RH = 27%]
Pressure (altimeter): 29.80 inches Hg (1009.2 mb[Sea-level pressure: 1003.6 mb]
Winds: from the SSE (150 degrees) at 8 MPH (7 knots; 3.6 m/s)
Visibility: 10 or more miles (16+ km)
Ceiling: at least 12,000 feet AGL
Clouds: sky clear below 12,000 feet AGL
Weather: automated observation with no human augmentation;
there may or may not be significant weather present at this time

METAR text: KAFF 230058Z AUTO 16011KT 10SM CLR 20/00 A2981 RMK AO2 SLP045 T01950004
Conditions at: KAFF (USAF ACADEMY/COS, CO, US) observed 0058 UTC 23 April 2014
Temperature: 19.5°C (67°F)
Dewpoint: 0.4°C (33°F) [RH = 28%]
Pressure (altimeter): 29.81 inches Hg (1009.6 mb[Sea-level pressure: 1004.5 mb]
Winds: from the SSE (160 degrees) at 13 MPH (11 knots; 5.7 m/s)
Visibility: 10 or more miles (16+ km)
Ceiling: at least 12,000 feet AGL
Clouds: sky clear below 12,000 feet AGL
Weather: automated observation with no human augmentation;
there may or may not be significant weather present at this time